パリ/シャルル・ド・ゴール の空港の天気 - METARとTAF

シャルル・ド・ゴール国際空港(パリ) ( LFPG / CDG ) - フランス Paris
飛行場実況気象(Metar)
観測時間07/21 00:00 CEST (07/20 22:00 UTC)
風向・風速北西 2m/s
視程10km以上
天気現象
なし
気温17℃
湿度63%
気圧1015hPa
METARLFPG 202200Z 32003KT CAVOK 17/10 Q1015 NOSIG
過去の天気等 Google飛行場航空写真 Wunderground天気予報

過去48時間のMETAR

飛行場予報(TAF)
発表時間: 7/20 19:00 CEST (7/20 17:00 UTC)
予報対象時間: 20日20時 CEST ~ 22日2時 CEST
風向・風速西 6m/s
視程10km以上
少しの雲 雲底高度 1,220m
全天の8割程度の雲 雲底高度 2,130m
20日20時 CEST ~ 20日22時 CEST に徐々に
視程10km以上
なし
20日23時 CEST ~ 21日1時 CEST に徐々に
風向・風速北東 4m/s
21日9時 CEST ~ 21日11時 CEST に徐々に
風向・風速南南西 5m/s 瞬間風速 13m/s
21日21時 CEST ~ 21日23時 CEST に徐々に
風向・風速南 5m/s
TAF LFPG 201700Z 2018/2124 28012KT 9999 FEW040 BKN070
BECMG 2018/2020 CAVOK
BECMG 2021/2023 05008KT
BECMG 2107/2109 21010G25KT
BECMG 2119/2121 17010KT TX26/2115Z TN14/2104Z